This is the latest recevied weather packets stored in our database for station/object KC8ZBC. If no packets are shown the sender has not sent any weather packets the latest 1 day(s).
| Time | Temp. | Humidity | Pressure | Rain* | Wind** | Luminosity | Snow |
|---|---|---|---|---|---|---|---|
| 1778037417 | 8.89° C | 56% | 983.7 hPa | 0 mm | - | 0 W/m² | - |
| 1778037114 | 8.89° C | 55% | 983.7 hPa | 0 mm | - | 0 W/m² | - |
| 1778036206 | 9.44° C | 54% | 983.6 hPa | 0 mm | - | 0 W/m² | - |
| 1778035902 | 9.44° C | 54% | 983.7 hPa | 0 mm | - | 0 W/m² | - |
| 1778035600 | 9.44° C | 53% | 983.8 hPa | 0 mm | - | 0 W/m² | - |
| 1778035296 | 9.44° C | 53% | 983.7 hPa | 0 mm | - | 0 W/m² | - |
| 1778034992 | 9.44° C | 54% | 983.9 hPa | 0 mm | - | 0 W/m² | - |
| 1778034387 | 9.44° C | 52% | 983.5 hPa | 0 mm | - | 0 W/m² | - |
| 1778034084 | 9.44° C | 52% | 983.5 hPa | 0 mm | - | 0 W/m² | - |
| 1778033782 | 9.44° C | 53% | 983.8 hPa | 0 mm | - | 0 W/m² | - |
| 1778033479 | 10° C | 52% | 983.7 hPa | 0 mm | - | 0 W/m² | - |
| 1778033176 | 10° C | 53% | 983.9 hPa | 0 mm | - | 0 W/m² | - |
| 1778032874 | 10° C | 53% | 983.7 hPa | 0 mm | - | 0 W/m² | - |
| 1778032571 | 10° C | 52% | 983.5 hPa | 0 mm | - | 0 W/m² | - |
| 1778032268 | 10° C | 49% | 983.3 hPa | 0 mm | - | 0 W/m² | - |
| 1778031359 | 10° C | 51% | 983.3 hPa | 0 mm | - | 0 W/m² | - |
| 1778031055 | 10° C | 49% | 983.1 hPa | 0 mm | - | 0 W/m² | - |
| 1778030448 | 10° C | 50% | 983.2 hPa | 0 mm | - | 0 W/m² | - |
| 1778029542 | 10.56° C | 50% | 983.2 hPa | 0 mm | - | 0 W/m² | - |
| 1778029238 | 10.56° C | 51% | 983 hPa | 0 mm | - | 0 W/m² | - |
| 1778028329 | 10.56° C | 50% | 983.1 hPa | 0 mm | - | 0 W/m² | - |
| 1778028025 | 10.56° C | 49% | 983.2 hPa | 0 mm | - | 0 W/m² | - |
| 1778027418 | 10.56° C | 47% | 983 hPa | 0 mm | - | 0 W/m² | - |
| 1778027114 | 10.56° C | 48% | 983 hPa | 0 mm | - | 0 W/m² | - |
| 1778026204 | 11.11° C | 47% | 982.7 hPa | 0 mm | - | 0 W/m² | - |
* Rain latest hour (hover to see other rain measurements)
** Current wind speed in m/s (hover to see current wind gust speed)